createdAt,value
2023-02-17T00:00:45.959Z,0
2023-02-17T00:01:46.017Z,0
2023-02-17T00:02:47.266Z,0
2023-02-17T00:03:46.927Z,0
2023-02-17T00:04:48.145Z,0
2023-02-17T00:05:50.678Z,0
2023-02-17T00:06:49.325Z,0
2023-02-17T00:07:49.242Z,0
2023-02-17T00:08:50.316Z,0
2023-02-17T00:09:51.533Z,0
2023-02-17T00:10:51.461Z,0
2023-02-17T00:11:51.920Z,0
2023-02-17T00:12:52.861Z,0
2023-02-17T00:13:55.228Z,0
2023-02-17T00:14:53.323Z,0
2023-02-17T00:15:54.179Z,0
2023-02-17T00:16:55.126Z,0
2023-02-17T00:17:55.371Z,0
2023-02-17T00:18:55.593Z,0
2023-02-17T00:19:55.972Z,0
2023-02-17T00:20:56.625Z,0
2023-02-17T00:21:58.088Z,0
2023-02-17T00:22:58.592Z,0
2023-02-17T00:23:58.282Z,0
2023-02-17T00:24:58.936Z,0
2023-02-17T00:26:00.148Z,0
2023-02-17T00:27:00.093Z,0
2023-02-17T00:28:01.314Z,0
2023-02-17T00:29:01.830Z,0
2023-02-17T00:30:02.378Z,0
2023-02-17T00:31:02.649Z,0
2023-02-17T00:32:03.569Z,0
2023-02-17T00:33:03.852Z,0
2023-02-17T00:34:04.513Z,0
2023-02-17T00:35:05.726Z,0
2023-02-17T00:36:05.993Z,0
2023-02-17T00:37:06.812Z,0
2023-02-17T00:38:06.772Z,0
2023-02-17T00:39:07.504Z,0
2023-02-17T00:40:08.440Z,0
2023-02-17T00:41:08.686Z,0
2023-02-17T00:42:09.024Z,0
2023-02-17T00:43:09.263Z,0
2023-02-17T00:44:09.232Z,0
2023-02-17T00:45:09.872Z,0
2023-02-17T00:46:11.842Z,0
2023-02-17T00:47:10.553Z,0
2023-02-17T00:48:11.577Z,0
2023-02-17T00:49:11.809Z,0
2023-02-17T00:50:12.170Z,0
2023-02-17T00:51:13.408Z,0
2023-02-17T00:52:14.545Z,0
2023-02-17T00:53:15.056Z,0
2023-02-17T00:54:15.289Z,0
2023-02-17T00:55:15.203Z,0
2023-02-17T00:56:17.342Z,0
2023-02-17T00:57:17.307Z,0
2023-02-17T00:58:17.527Z,0
2023-02-17T00:59:17.733Z,0
2023-02-17T01:00:18.038Z,0
2023-02-17T01:01:18.306Z,0
2023-02-17T01:02:18.997Z,0
2023-02-17T01:03:19.225Z,0
2023-02-17T01:04:19.883Z,0
2023-02-17T01:05:20.874Z,0
2023-02-17T01:06:22.440Z,0
2023-02-17T01:07:23.075Z,0
2023-02-17T01:08:23.611Z,0
2023-02-17T01:09:23.543Z,0
2023-02-17T01:10:23.977Z,0
2023-02-17T01:11:24.617Z,0
2023-02-17T01:12:25.616Z,0
2023-02-17T01:13:26.571Z,0
2023-02-17T01:14:26.784Z,0
2023-02-17T01:15:26.743Z,0
2023-02-17T01:16:28.102Z,0
2023-02-17T01:17:28.054Z,0
2023-02-17T01:18:28.196Z,0
2023-02-17T01:19:29.148Z,0
2023-02-17T01:20:29.793Z,0
2023-02-17T01:21:30.466Z,0
2023-02-17T01:22:32.231Z,0
2023-02-17T01:23:32.727Z,0
2023-02-17T01:24:32.962Z,0
2023-02-17T01:25:33.799Z,0
2023-02-17T01:26:34.395Z,0
2023-02-17T01:27:34.065Z,0
2023-02-17T01:28:35.272Z,0
2023-02-17T01:29:35.462Z,0
2023-02-17T01:30:35.610Z,0
2023-02-17T01:31:36.490Z,0
2023-02-17T01:32:36.267Z,0
2023-02-17T01:33:36.922Z,0
2023-02-17T01:34:38.160Z,0
2023-02-17T01:35:38.088Z,0
2023-02-17T01:36:39.305Z,0
2023-02-17T01:37:39.925Z,0
2023-02-17T01:38:39.848Z,0
2023-02-17T01:39:41.343Z,0
2023-02-17T01:40:41.545Z,0
2023-02-17T01:41:41.807Z,0
2023-02-17T01:42:42.457Z,0
2023-02-17T01:43:41.821Z,0
2023-02-17T01:44:43.182Z,0
2023-02-17T01:45:43.819Z,0
2023-02-17T01:46:45.151Z,0
2023-02-17T01:47:45.097Z,0
2023-02-17T01:48:45.764Z,0
2023-02-17T01:49:46.699Z,0
2023-02-17T01:50:47.347Z,0
2023-02-17T01:51:47.994Z,0
2023-02-17T01:52:49.671Z,0
2023-02-17T01:53:50.165Z,0
2023-02-17T01:54:50.669Z,0
2023-02-17T01:55:51.166Z,0
2023-02-17T01:56:51.132Z,0
2023-02-17T01:57:51.345Z,0
2023-02-17T01:58:51.284Z,0
2023-02-17T01:59:52.489Z,0
2023-02-17T02:00:53.051Z,0
2023-02-17T02:01:53.399Z,0
2023-02-17T02:02:54.698Z,0
2023-02-17T02:03:54.744Z,0
2023-02-17T02:04:54.979Z,0
2023-02-17T02:05:55.911Z,0
2023-02-17T02:06:56.840Z,0
2023-02-17T02:07:57.475Z,0
2023-02-17T02:08:57.664Z,0
2023-02-17T02:09:58.334Z,0
2023-02-17T02:10:59.553Z,0
2023-02-17T02:12:00.235Z,0
2023-02-17T02:13:01.236Z,0
2023-02-17T02:14:01.465Z,0
2023-02-17T02:15:01.395Z,0
2023-02-17T02:16:02.358Z,0
2023-02-17T02:17:03.377Z,0
2023-02-17T02:18:04.894Z,0
2023-02-17T02:19:04.812Z,0
2023-02-17T02:20:05.748Z,0
2023-02-17T02:21:07.258Z,0
2023-02-17T02:22:07.504Z,0
2023-02-17T02:23:08.970Z,0
2023-02-17T02:24:09.233Z,0
2023-02-17T02:25:09.725Z,0
2023-02-17T02:26:10.129Z,0
2023-02-17T02:27:10.073Z,0
2023-02-17T02:28:09.998Z,0
2023-02-17T02:29:11.204Z,0
2023-02-17T02:30:12.340Z,0
2023-02-17T02:31:12.666Z,0
2023-02-17T02:32:12.916Z,0
2023-02-17T02:33:13.660Z,0
2023-02-17T02:34:14.326Z,0
2023-02-17T02:35:15.272Z,0
2023-02-17T02:36:17.232Z,0
2023-02-17T02:37:17.159Z,0
2023-02-17T02:38:18.720Z,0
2023-02-17T02:39:18.636Z,0
2023-02-17T02:40:19.271Z,0
2023-02-17T02:41:19.932Z,0
2023-02-17T02:42:21.160Z,0
2023-02-17T02:43:21.501Z,0
2023-02-17T02:44:21.416Z,0
2023-02-17T02:45:22.078Z,0
2023-02-17T02:46:23.671Z,0
2023-02-17T02:47:23.884Z,0
2023-02-17T02:48:24.098Z,0
2023-02-17T02:49:24.049Z,0
2023-02-17T02:50:24.397Z,0
2023-02-17T02:51:25.664Z,0
2023-02-17T02:52:25.568Z,0
2023-02-17T02:53:26.682Z,0
2023-02-17T02:54:26.911Z,0
2023-02-17T02:55:26.843Z,0
2023-02-17T02:56:28.059Z,0
2023-02-17T02:57:28.188Z,0
2023-02-17T02:58:28.099Z,0
2023-02-17T02:59:29.320Z,0
2023-02-17T03:00:29.277Z,0
2023-02-17T03:01:30.853Z,0
2023-02-17T03:02:30.782Z,0
2023-02-17T03:03:31.908Z,0
2023-02-17T03:04:31.675Z,0
2023-02-17T03:05:32.619Z,0
2023-02-17T03:06:33.272Z,0
2023-02-17T03:07:34.528Z,0
2023-02-17T03:08:35.142Z,0
2023-02-17T03:09:34.768Z,0
2023-02-17T03:10:36.255Z,0
2023-02-17T03:11:36.199Z,0
2023-02-17T03:12:36.426Z,0
2023-02-17T03:13:37.027Z,0
2023-02-17T03:14:36.953Z,0
2023-02-17T03:15:38.430Z,0
2023-02-17T03:16:37.979Z,0
2023-02-17T03:17:38.377Z,0
2023-02-17T03:18:38.426Z,0
2023-02-17T03:19:39.051Z,0
2023-02-17T03:20:39.966Z,0
2023-02-17T03:21:41.180Z,0
2023-02-17T03:22:41.670Z,0
2023-02-17T03:23:42.418Z,0
2023-02-17T03:24:42.691Z,0
2023-02-17T03:25:42.894Z,0
2023-02-17T03:26:44.255Z,0
2023-02-17T03:27:44.182Z,0
2023-02-17T03:28:45.538Z,0
2023-02-17T03:29:45.474Z,0
2023-02-17T03:30:45.477Z,0
2023-02-17T03:31:47.969Z,0
2023-02-17T03:32:46.939Z,0
2023-02-17T03:33:47.977Z,0
2023-02-17T03:34:48.630Z,0
2023-02-17T03:35:50.204Z,0
2023-02-17T03:36:50.690Z,0
2023-02-17T03:37:50.904Z,0
2023-02-17T03:38:51.500Z,0
2023-02-17T03:39:51.731Z,0
2023-02-17T03:40:52.386Z,0
2023-02-17T03:41:53.015Z,0
2023-02-17T03:42:54.218Z,0
2023-02-17T03:43:54.892Z,0
2023-02-17T03:44:55.098Z,0
2023-02-17T03:45:55.899Z,0
2023-02-17T03:46:56.821Z,0
2023-02-17T03:47:57.178Z,0
2023-02-17T03:48:58.394Z,0
2023-02-17T03:49:59.026Z,0
2023-02-17T03:50:59.959Z,0
2023-02-17T03:52:01.166Z,0
2023-02-17T03:53:00.517Z,0
2023-02-17T03:54:01.916Z,0
2023-02-17T03:55:02.113Z,0
2023-02-17T03:56:02.786Z,0
2023-02-17T03:57:03.702Z,0
2023-02-17T03:58:05.199Z,0
2023-02-17T03:59:05.139Z,0
2023-02-17T04:00:05.786Z,0
2023-02-17T04:01:06.536Z,0
2023-02-17T04:02:07.281Z,0
2023-02-17T04:03:08.223Z,0
2023-02-17T04:04:08.792Z,0
2023-02-17T04:05:09.336Z,0
2023-02-17T04:06:09.901Z,0
2023-02-17T04:07:10.387Z,0
2023-02-17T04:08:10.515Z,0
2023-02-17T04:09:11.153Z,0
2023-02-17T04:10:13.572Z,0
2023-02-17T04:11:11.549Z,0
2023-02-17T04:12:12.766Z,0
2023-02-17T04:13:12.960Z,0
2023-02-17T04:14:12.748Z,0
2023-02-17T04:15:13.963Z,0
2023-02-17T04:16:14.219Z,0
2023-02-17T04:17:14.747Z,0
2023-02-17T04:18:15.246Z,0
2023-02-17T04:19:15.168Z,0
2023-02-17T04:20:16.658Z,0
2023-02-17T04:21:16.303Z,0
2023-02-17T04:22:17.224Z,0
2023-02-17T04:23:18.414Z,0
2023-02-17T04:24:19.176Z,0
2023-02-17T04:25:19.419Z,0
2023-02-17T04:26:20.498Z,0
2023-02-17T04:27:20.416Z,0
2023-02-17T04:28:21.636Z,0
2023-02-17T04:29:21.565Z,0
2023-02-17T04:30:24.081Z,0
2023-02-17T04:31:24.039Z,0
2023-02-17T04:32:23.643Z,0
2023-02-17T04:33:23.556Z,0
2023-02-17T04:34:24.552Z,0
2023-02-17T04:35:25.211Z,0
2023-02-17T04:36:25.613Z,0
2023-02-17T04:37:26.250Z,0
2023-02-17T04:38:27.482Z,0
2023-02-17T04:39:29.210Z,0
2023-02-17T04:40:28.901Z,0
2023-02-17T04:41:30.132Z,0
2023-02-17T04:42:30.345Z,0
2023-02-17T04:43:30.734Z,0
2023-02-17T04:44:32.366Z,0
2023-02-17T04:45:32.593Z,0
2023-02-17T04:46:33.321Z,0
2023-02-17T04:47:33.252Z,0
2023-02-17T04:48:33.756Z,0
2023-02-17T04:49:33.686Z,0
2023-02-17T04:50:35.398Z,0
2023-02-17T04:51:33.735Z,0
2023-02-17T04:52:34.945Z,0
2023-02-17T04:53:35.430Z,0
2023-02-17T04:54:36.104Z,0
2023-02-17T04:55:36.310Z,0
2023-02-17T04:56:37.531Z,0
2023-02-17T04:57:36.942Z,0
2023-02-17T04:58:38.151Z,0
2023-02-17T04:59:39.184Z,0
2023-02-17T05:00:38.831Z,0
2023-02-17T05:01:40.335Z,0
2023-02-17T05:02:40.275Z,0
2023-02-17T05:03:41.482Z,0
2023-02-17T05:04:42.676Z,0
2023-02-17T05:05:42.508Z,0
2023-02-17T05:06:42.425Z,0
2023-02-17T05:07:43.667Z,0
2023-02-17T05:08:43.586Z,0
2023-02-17T05:09:44.181Z,0
2023-02-17T05:10:44.384Z,0
2023-02-17T05:11:44.287Z,0
2023-02-17T05:12:45.486Z,0
2023-02-17T05:13:46.131Z,0
2023-02-17T05:14:47.424Z,0
2023-02-17T05:15:49.677Z,0
2023-02-17T05:16:47.915Z,0
2023-02-17T05:17:48.427Z,0
2023-02-17T05:18:47.780Z,0
2023-02-17T05:19:49.283Z,0
2023-02-17T05:20:49.240Z,0
2023-02-17T05:21:49.472Z,0
2023-02-17T05:22:50.699Z,0
2023-02-17T05:23:50.626Z,0
2023-02-17T05:24:54.497Z,0
2023-02-17T05:25:52.130Z,0
2023-02-17T05:26:53.048Z,0
2023-02-17T05:27:54.179Z,0
2023-02-17T05:28:54.100Z,0
2023-02-17T05:29:55.074Z,0
2023-02-17T05:30:56.669Z,0
2023-02-17T05:31:57.052Z,0
2023-02-17T05:32:56.732Z,0
2023-02-17T05:33:57.940Z,0
2023-02-17T05:34:58.514Z,0
2023-02-17T05:35:57.597Z,0
2023-02-17T05:36:59.527Z,0
2023-02-17T05:37:59.238Z,0
2023-02-17T05:39:00.221Z,0
2023-02-17T05:40:01.810Z,0
2023-02-17T05:41:02.339Z,0
2023-02-17T05:42:02.283Z,0
2023-02-17T05:43:02.648Z,0
2023-02-17T05:44:03.565Z,0
2023-02-17T05:45:04.897Z,0
2023-02-17T05:46:05.274Z,0
2023-02-17T05:47:05.754Z,0
2023-02-17T05:48:05.395Z,0
2023-02-17T05:49:06.356Z,0
2023-02-17T05:50:07.574Z,0
2023-02-17T05:51:07.487Z,0
2023-02-17T05:52:08.407Z,0
2023-02-17T05:53:08.910Z,0
2023-02-17T05:54:08.555Z,0
2023-02-17T05:55:09.400Z,0
2023-02-17T05:56:09.682Z,0
2023-02-17T05:57:10.409Z,0
2023-02-17T05:58:11.348Z,0
2023-02-17T05:59:12.836Z,0
2023-02-17T06:00:13.372Z,0
2023-02-17T06:01:13.002Z,0
2023-02-17T06:02:13.638Z,0
2023-02-17T06:03:14.936Z,0
2023-02-17T06:04:14.945Z,0
2023-02-17T06:05:15.928Z,0
2023-02-17T06:06:17.137Z,0
2023-02-17T06:07:15.763Z,0
2023-02-17T06:08:16.718Z,0
2023-02-17T06:09:16.956Z,0
2023-02-17T06:10:18.288Z,0
2023-02-17T06:11:18.298Z,0
2023-02-17T06:12:18.958Z,0
2023-02-17T06:13:19.582Z,0
2023-02-17T06:14:20.501Z,0
2023-02-17T06:15:21.768Z,0
2023-02-17T06:16:22.830Z,0
2023-02-17T06:17:21.821Z,0
2023-02-17T06:18:23.401Z,0
2023-02-17T06:19:23.037Z,0
2023-02-17T06:20:24.542Z,0
2023-02-17T06:21:24.159Z,0
2023-02-17T06:22:25.398Z,0
2023-02-17T06:23:25.642Z,0
2023-02-17T06:24:26.569Z,0
2023-02-17T06:25:27.287Z,0
2023-02-17T06:26:27.281Z,0
2023-02-17T06:27:28.201Z,0
2023-02-17T06:28:28.421Z,0
2023-02-17T06:29:29.355Z,0
2023-02-17T06:30:30.848Z,0
2023-02-17T06:31:31.157Z,0
2023-02-17T06:32:31.100Z,0
2023-02-17T06:33:32.111Z,0
2023-02-17T06:34:32.021Z,0
2023-02-17T06:35:33.069Z,0
2023-02-17T06:36:32.984Z,0
2023-02-17T06:37:33.617Z,0
2023-02-17T06:38:34.992Z,0
2023-02-17T06:39:35.488Z,0
2023-02-17T06:40:35.807Z,0
2023-02-17T06:41:36.047Z,0
2023-02-17T06:42:36.260Z,0
2023-02-17T06:43:35.881Z,0
2023-02-17T06:44:36.547Z,0
2023-02-17T06:45:37.824Z,0
2023-02-17T06:46:37.459Z,5.63
2023-02-17T06:47:38.404Z,5.63
2023-02-17T06:48:38.689Z,5.63
2023-02-17T06:49:40.930Z,5.63
2023-02-17T06:50:39.921Z,5.63
2023-02-17T06:51:40.263Z,5.63
2023-02-17T06:52:41.768Z,5.63
2023-02-17T06:53:42.273Z,5.63
2023-02-17T06:54:42.789Z,5.63
2023-02-17T06:55:43.201Z,5.63
2023-02-17T06:56:43.416Z,5.63
2023-02-17T06:57:42.946Z,5.63
2023-02-17T06:58:43.575Z,11.25
2023-02-17T06:59:43.920Z,11.25
2023-02-17T07:00:44.869Z,11.25
2023-02-17T07:01:45.743Z,11.25
2023-02-17T07:02:47.093Z,11.25
2023-02-17T07:03:47.093Z,11.25
2023-02-17T07:04:47.302Z,11.25
2023-02-17T07:05:48.104Z,11.25
2023-02-17T07:06:48.090Z,11.25
2023-02-17T07:07:48.297Z,11.25
2023-02-17T07:08:51.024Z,11.25
2023-02-17T07:09:49.954Z,11.25
2023-02-17T07:10:51.271Z,11.25
2023-02-17T07:11:50.900Z,11.25
2023-02-17T07:12:51.843Z,11.25
2023-02-17T07:13:52.504Z,11.25
2023-02-17T07:14:53.986Z,11.25
2023-02-17T07:15:54.261Z,11.25
2023-02-17T07:16:54.260Z,11.25
2023-02-17T07:17:55.480Z,11.25
2023-02-17T07:18:55.710Z,11.25
2023-02-17T07:19:55.926Z,11.25
2023-02-17T07:20:57.437Z,11.25
2023-02-17T07:21:58.071Z,11.25
2023-02-17T07:22:58.017Z,11.25
2023-02-17T07:23:59.230Z,11.25
2023-02-17T07:25:00.167Z,16.88
2023-02-17T07:26:00.932Z,16.88
2023-02-17T07:27:01.209Z,16.88
2023-02-17T07:28:01.698Z,16.88
2023-02-17T07:29:02.346Z,16.88
2023-02-17T07:30:02.649Z,16.88
2023-02-17T07:31:02.524Z,16.88
2023-02-17T07:32:03.968Z,16.88
2023-02-17T07:33:06.640Z,16.88
2023-02-17T07:34:03.197Z,22.5
2023-02-17T07:35:04.126Z,22.5
2023-02-17T07:36:05.753Z,22.5
2023-02-17T07:37:06.412Z,22.5
2023-02-17T07:38:06.348Z,28.13
2023-02-17T07:39:07.582Z,33.75
2023-02-17T07:40:08.547Z,33.75
2023-02-17T07:41:09.909Z,33.75
2023-02-17T07:42:10.106Z,33.75
2023-02-17T07:43:10.514Z,33.75
2023-02-17T07:44:11.469Z,33.75
2023-02-17T07:45:12.114Z,33.75
2023-02-17T07:46:17.214Z,28.13
2023-02-17T07:47:14.465Z,28.13
2023-02-17T07:48:14.988Z,28.13
2023-02-17T07:49:15.498Z,28.13
2023-02-17T07:50:15.415Z,28.13
2023-02-17T07:51:16.077Z,28.13
2023-02-17T07:52:16.775Z,28.13
2023-02-17T07:53:17.979Z,28.13
2023-02-17T07:54:18.474Z,28.13
2023-02-17T07:55:18.977Z,28.13
2023-02-17T07:56:20.010Z,28.13
2023-02-17T07:57:19.240Z,28.13
2023-02-17T07:58:18.877Z,28.13
2023-02-17T07:59:20.098Z,28.13
2023-02-17T08:00:22.041Z,28.13
2023-02-17T08:01:20.431Z,28.13
2023-02-17T08:02:22.010Z,28.13
2023-02-17T08:03:22.210Z,28.13
2023-02-17T08:04:23.427Z,22.5
2023-02-17T08:05:23.636Z,22.5
2023-02-17T08:06:24.730Z,28.13
2023-02-17T08:07:24.662Z,28.13
2023-02-17T08:08:25.610Z,28.13
2023-02-17T08:09:25.573Z,28.13
2023-02-17T08:10:26.785Z,33.75
2023-02-17T08:11:28.109Z,33.75
2023-02-17T08:12:28.308Z,33.75
2023-02-17T08:13:28.516Z,33.75
2023-02-17T08:14:30.171Z,33.75
2023-02-17T08:15:29.132Z,39.38
2023-02-17T08:16:30.606Z,39.38
2023-02-17T08:17:30.981Z,39.38
2023-02-17T08:18:36.415Z,39.38
2023-02-17T08:19:47.857Z,39.38
2023-02-17T08:20:34.949Z,39.38
2023-02-17T08:21:33.434Z,39.38
2023-02-17T08:22:33.820Z,39.38
2023-02-17T08:23:34.362Z,39.38
2023-02-17T08:24:34.964Z,39.38
2023-02-17T08:25:35.504Z,39.38
2023-02-17T08:26:36.258Z,39.38
2023-02-17T08:27:36.519Z,39.38
2023-02-17T08:28:36.753Z,39.38
2023-02-17T08:29:38.140Z,39.38
2023-02-17T08:30:38.682Z,39.38
2023-02-17T08:31:39.419Z,39.38
2023-02-17T08:32:39.430Z,39.38
2023-02-17T08:33:39.673Z,45
2023-02-17T08:34:39.931Z,50.63
2023-02-17T08:35:40.190Z,50.63
2023-02-17T08:36:41.209Z,50.63
2023-02-17T08:37:41.476Z,50.63
2023-02-17T08:38:42.540Z,50.63
2023-02-17T08:39:43.255Z,50.63
2023-02-17T08:40:44.515Z,50.63
2023-02-17T08:41:45.997Z,56.25
2023-02-17T08:42:45.717Z,56.25
2023-02-17T08:43:46.741Z,61.88
2023-02-17T08:44:47.380Z,56.25
2023-02-17T08:45:47.707Z,61.88
2023-02-17T08:46:48.287Z,61.88
2023-02-17T08:47:48.312Z,61.88
2023-02-17T08:48:51.299Z,61.88
2023-02-17T08:49:50.512Z,67.5
2023-02-17T08:50:50.782Z,67.5
2023-02-17T08:51:51.464Z,67.5
2023-02-17T08:52:52.517Z,67.5
2023-02-17T08:53:53.297Z,73.13
2023-02-17T08:56:11.582Z,73.13
2023-02-17T08:57:00.266Z,67.5
2023-02-17T08:58:00.794Z,67.5
2023-02-17T08:59:01.113Z,67.5
2023-02-17T09:00:01.065Z,73.13
2023-02-17T09:01:02.377Z,78.75
2023-02-17T09:02:03.900Z,78.75
2023-02-17T09:03:04.552Z,78.75
2023-02-17T09:04:04.912Z,73.13
2023-02-17T09:05:05.343Z,67.5
2023-02-17T09:06:07.575Z,61.88
2023-02-17T09:07:05.860Z,61.88
2023-02-17T09:08:07.257Z,56.25
2023-02-17T09:09:07.094Z,56.25
2023-02-17T09:10:07.866Z,56.25
2023-02-17T09:11:09.716Z,61.88
2023-02-17T09:12:09.594Z,61.88
2023-02-17T09:13:09.263Z,61.88
2023-02-17T09:14:10.608Z,67.5
2023-02-17T09:15:11.258Z,73.13
2023-02-17T09:16:12.756Z,73.13
2023-02-17T09:17:12.552Z,73.13
2023-02-17T09:18:12.852Z,84.38
2023-02-17T09:19:12.974Z,90
2023-02-17T09:20:28.347Z,101.25
2023-02-17T09:21:13.677Z,101.25
2023-02-17T09:22:29.713Z,101.25
2023-02-17T09:23:15.412Z,101.25
2023-02-17T09:24:16.702Z,106.88
2023-02-17T09:25:16.643Z,106.88
2023-02-17T09:26:18.791Z,106.88
2023-02-17T09:27:18.632Z,106.88
2023-02-17T09:28:19.388Z,106.88
2023-02-17T09:29:19.456Z,106.88
2023-02-17T09:30:21.171Z,106.88
2023-02-17T09:31:22.341Z,112.5
2023-02-17T09:32:22.806Z,112.5
2023-02-17T09:33:22.211Z,118.13
2023-02-17T09:34:22.545Z,112.5
2023-02-17T09:35:23.942Z,112.5
2023-02-17T09:36:24.706Z,112.5
2023-02-17T09:37:24.886Z,106.88
2023-02-17T09:38:24.902Z,101.25
2023-02-17T09:39:29.247Z,106.88
2023-02-17T09:40:26.684Z,112.5
2023-02-17T09:41:27.378Z,118.13
2023-02-17T09:42:28.251Z,146.25
2023-02-17T09:43:28.481Z,157.5
2023-02-17T09:44:29.151Z,163.13
2023-02-17T09:45:30.186Z,157.5
2023-02-17T09:46:30.074Z,135
2023-02-17T09:47:30.535Z,118.13
2023-02-17T09:48:32.144Z,101.25
2023-02-17T09:49:32.395Z,84.38
2023-02-17T09:50:32.915Z,73.13
2023-02-17T09:51:33.905Z,56.25
2023-02-17T09:52:35.284Z,45
2023-02-17T09:53:35.646Z,45
2023-02-17T09:54:35.429Z,45
2023-02-17T09:55:36.935Z,45
2023-02-17T09:56:39.098Z,45
2023-02-17T09:57:38.080Z,45
2023-02-17T09:58:38.762Z,50.63
2023-02-17T09:59:38.749Z,56.25
2023-02-17T10:00:39.503Z,61.88
2023-02-17T10:01:39.956Z,61.88
2023-02-17T10:02:40.040Z,67.5
2023-02-17T10:03:42.225Z,67.5
2023-02-17T10:04:42.252Z,61.88
2023-02-17T10:05:42.298Z,56.25
2023-02-17T10:06:43.313Z,56.25
2023-02-17T10:07:44.064Z,56.25
2023-02-17T10:08:43.843Z,50.63
2023-02-17T10:09:45.357Z,50.63
2023-02-17T10:10:45.449Z,50.63
2023-02-17T10:11:46.015Z,50.63
2023-02-17T10:12:46.807Z,50.63
2023-02-17T10:13:47.620Z,56.25
2023-02-17T10:14:48.318Z,61.88
2023-02-17T10:15:48.799Z,61.88
2023-02-17T10:16:49.263Z,56.25
2023-02-17T10:17:49.590Z,56.25
2023-02-17T10:18:49.842Z,61.88
2023-02-17T10:19:50.245Z,67.5
2023-02-17T10:20:50.549Z,73.13
2023-02-17T10:21:51.049Z,78.75
2023-02-17T10:22:51.949Z,73.13
2023-02-17T10:23:52.198Z,73.13
2023-02-17T10:24:51.929Z,73.13
2023-02-17T10:25:53.681Z,73.13
2023-02-17T10:26:56.067Z,73.13
2023-02-17T10:27:54.967Z,67.5
2023-02-17T10:28:55.600Z,61.88
2023-02-17T10:29:56.575Z,67.5
2023-02-17T10:30:57.824Z,73.13
2023-02-17T10:31:57.950Z,61.88
2023-02-17T10:32:57.724Z,61.88
2023-02-17T10:33:57.963Z,61.88
2023-02-17T10:34:58.380Z,61.88
2023-02-17T10:35:58.867Z,61.88
2023-02-17T10:36:59.754Z,67.5
2023-02-17T10:38:00.096Z,73.13
2023-02-17T10:38:59.825Z,78.75
2023-02-17T10:40:00.775Z,67.5
2023-02-17T10:41:01.283Z,61.88
2023-02-17T10:42:01.216Z,61.88
2023-02-17T10:43:04.926Z,61.88
2023-02-17T10:44:02.564Z,61.88
2023-02-17T10:45:04.336Z,56.25
2023-02-17T10:46:04.292Z,56.25
2023-02-17T10:47:05.840Z,56.25
2023-02-17T10:48:05.687Z,56.25
2023-02-17T10:49:07.254Z,61.88
2023-02-17T10:50:07.296Z,67.5
2023-02-17T10:51:06.974Z,67.5
2023-02-17T10:52:07.928Z,67.5
2023-02-17T10:53:08.862Z,73.13
2023-02-17T10:54:09.069Z,73.13
2023-02-17T10:55:23.647Z,73.13
2023-02-17T10:56:10.261Z,78.75
2023-02-17T10:57:10.229Z,90
2023-02-17T10:58:11.667Z,95.63
2023-02-17T10:59:11.870Z,106.88
2023-02-17T11:00:12.084Z,101.25
2023-02-17T11:01:12.352Z,90
2023-02-17T11:02:13.678Z,90
2023-02-17T11:03:13.921Z,106.88
2023-02-17T11:04:16.658Z,101.25
2023-02-17T11:05:15.164Z,84.38
2023-02-17T11:06:16.485Z,84.38
2023-02-17T11:07:15.706Z,78.75
2023-02-17T11:08:15.769Z,84.38
2023-02-17T11:09:16.791Z,84.38
2023-02-17T11:10:18.342Z,90
2023-02-17T11:11:17.544Z,95.63
2023-02-17T11:12:18.074Z,101.25
2023-02-17T11:13:18.676Z,123.75
2023-02-17T11:14:18.945Z,95.63
2023-02-17T11:15:18.907Z,84.38
2023-02-17T11:16:22.490Z,73.13
2023-02-17T11:17:20.766Z,73.13
2023-02-17T11:18:21.819Z,67.5
2023-02-17T11:19:22.663Z,73.13
2023-02-17T11:20:23.031Z,67.5
2023-02-17T11:21:23.947Z,61.88
2023-02-17T11:22:24.431Z,61.88
2023-02-17T11:23:24.075Z,50.63
2023-02-17T11:24:24.744Z,50.63
2023-02-17T11:25:25.974Z,50.63
2023-02-17T11:26:26.171Z,50.63
2023-02-17T11:27:26.412Z,56.25
2023-02-17T11:28:29.521Z,56.25
2023-02-17T11:29:27.223Z,56.25
2023-02-17T11:30:28.327Z,56.25
2023-02-17T11:31:29.045Z,61.88
2023-02-17T11:32:29.524Z,61.88
2023-02-17T11:33:29.723Z,67.5
2023-02-17T11:34:30.378Z,67.5
2023-02-17T11:35:31.625Z,73.13
2023-02-17T11:36:32.589Z,73.13
2023-02-17T11:37:32.823Z,73.13
2023-02-17T11:38:33.636Z,73.13
2023-02-17T11:39:34.146Z,67.5
2023-02-17T11:40:37.781Z,73.13
2023-02-17T11:41:35.005Z,73.13
2023-02-17T11:42:35.349Z,67.5
2023-02-17T11:43:35.969Z,73.13
2023-02-17T11:44:36.200Z,84.38
2023-02-17T11:45:36.597Z,84.38
2023-02-17T11:46:36.301Z,95.63
2023-02-17T11:47:37.814Z,112.5
2023-02-17T11:48:38.440Z,118.13
2023-02-17T11:49:38.648Z,106.88
2023-02-17T11:50:55.275Z,112.5
2023-02-17T11:51:39.226Z,112.5
2023-02-17T11:52:40.809Z,118.13
2023-02-17T11:53:41.039Z,118.13
2023-02-17T11:54:40.951Z,118.13
2023-02-17T11:55:42.172Z,118.13
2023-02-17T11:56:42.102Z,118.13
2023-02-17T11:57:45.334Z,123.75
2023-02-17T11:58:44.668Z,112.5
2023-02-17T11:59:44.898Z,112.5
2023-02-17T12:00:44.838Z,106.88
2023-02-17T12:01:45.787Z,112.5
2023-02-17T12:02:45.507Z,112.5
2023-02-17T12:03:48.414Z,112.5
2023-02-17T12:04:47.487Z,106.88
2023-02-17T12:05:47.997Z,101.25
2023-02-17T12:06:48.058Z,95.63
2023-02-17T12:07:48.576Z,95.63
2023-02-17T12:08:51.872Z,95.63
2023-02-17T12:09:49.540Z,90
2023-02-17T12:10:50.174Z,90
2023-02-17T12:11:51.426Z,90
2023-02-17T12:12:51.648Z,84.38
2023-02-17T12:13:52.319Z,90
2023-02-17T12:14:52.524Z,90
2023-02-17T12:15:53.023Z,95.63
2023-02-17T12:16:53.389Z,95.63
2023-02-17T12:17:53.614Z,95.63
2023-02-17T12:18:54.066Z,95.63
2023-02-17T12:19:55.299Z,101.25
2023-02-17T12:20:55.227Z,101.25
2023-02-17T12:21:55.972Z,106.88
2023-02-17T12:22:56.879Z,112.5
2023-02-17T12:23:58.120Z,118.13
2023-02-17T12:24:57.807Z,118.13
2023-02-17T12:25:59.034Z,118.13
2023-02-17T12:26:59.264Z,118.13
2023-02-17T12:27:58.937Z,118.13
2023-02-17T12:29:00.675Z,123.75
2023-02-17T12:30:00.951Z,129.38
2023-02-17T12:31:02.350Z,135
2023-02-17T12:32:02.660Z,129.38
2023-02-17T12:33:02.258Z,123.75
2023-02-17T12:34:02.766Z,123.75
2023-02-17T12:35:02.702Z,123.75
2023-02-17T12:36:04.329Z,123.75
2023-02-17T12:37:04.769Z,123.75
2023-02-17T12:38:05.209Z,123.75
2023-02-17T12:39:05.218Z,123.75
2023-02-17T12:40:05.531Z,123.75
2023-02-17T12:41:05.738Z,118.13
2023-02-17T12:42:06.384Z,118.13
2023-02-17T12:43:07.315Z,112.5
2023-02-17T12:44:08.929Z,106.88
2023-02-17T12:45:09.147Z,101.25
2023-02-17T12:46:10.375Z,95.63
2023-02-17T12:47:10.927Z,95.63
2023-02-17T12:48:10.604Z,95.63
2023-02-17T12:49:13.030Z,90
2023-02-17T12:50:11.992Z,84.38
2023-02-17T12:51:12.933Z,84.38
2023-02-17T12:52:14.166Z,78.75
2023-02-17T12:53:14.390Z,73.13
2023-02-17T12:54:14.906Z,73.13
2023-02-17T12:55:14.276Z,67.5
2023-02-17T12:56:16.387Z,56.25
2023-02-17T12:57:15.452Z,56.25
2023-02-17T12:58:16.749Z,50.63
2023-02-17T12:59:17.476Z,45
2023-02-17T13:00:17.996Z,45
2023-02-17T13:01:18.627Z,45
2023-02-17T13:02:19.241Z,39.38
2023-02-17T13:03:18.942Z,39.38
2023-02-17T13:04:20.510Z,39.38
2023-02-17T13:05:20.740Z,39.38
2023-02-17T13:06:21.457Z,39.38
2023-02-17T13:07:21.548Z,39.38
2023-02-17T13:08:21.768Z,39.38
2023-02-17T13:09:23.113Z,39.38
2023-02-17T13:10:23.028Z,45
2023-02-17T13:11:24.407Z,45
2023-02-17T13:12:24.322Z,45
2023-02-17T13:13:27.871Z,45
2023-02-17T13:14:25.486Z,45
2023-02-17T13:15:25.710Z,39.38
2023-02-17T13:16:26.619Z,39.38
2023-02-17T13:17:27.115Z,39.38
2023-02-17T13:18:27.635Z,33.75
2023-02-17T13:19:27.654Z,33.75
2023-02-17T13:20:27.310Z,33.75
2023-02-17T13:21:28.244Z,33.75
2023-02-17T13:22:29.214Z,33.75
2023-02-17T13:23:29.713Z,39.38
2023-02-17T13:24:29.929Z,39.38
2023-02-17T13:25:30.454Z,33.75
2023-02-17T13:26:30.718Z,39.38
2023-02-17T13:27:30.647Z,39.38
2023-02-17T13:28:30.992Z,33.75
2023-02-17T13:29:32.439Z,33.75
2023-02-17T13:30:32.253Z,33.75
2023-02-17T13:31:34.769Z,33.75
2023-02-17T13:32:34.886Z,33.75
2023-02-17T13:33:34.814Z,33.75
2023-02-17T13:34:35.040Z,33.75
2023-02-17T13:35:35.060Z,33.75
2023-02-17T13:36:36.576Z,33.75
2023-02-17T13:37:36.794Z,33.75
2023-02-17T13:38:36.769Z,39.38
2023-02-17T13:39:37.865Z,39.38
2023-02-17T13:40:38.055Z,39.38
2023-02-17T13:41:38.292Z,39.38
2023-02-17T13:42:38.295Z,45
2023-02-17T13:43:39.518Z,45
2023-02-17T13:44:40.150Z,50.63
2023-02-17T13:45:40.489Z,56.25
2023-02-17T13:46:40.624Z,50.63
2023-02-17T13:47:43.379Z,50.63
2023-02-17T13:48:42.039Z,56.25
2023-02-17T13:49:43.368Z,61.88
2023-02-17T13:50:43.647Z,67.5
2023-02-17T13:51:44.576Z,73.13
2023-02-17T13:52:45.010Z,73.13
2023-02-17T13:53:48.853Z,73.13
2023-02-17T13:54:46.843Z,73.13
2023-02-17T13:55:47.772Z,67.5